Time;durP1;ratioP1;P1;durP2;ratioP2;P2;SDS_P1;SDS_P2;PMS_P1;PMS_P2;Temp;Humidity;BMP_temperature;BMP_pressure;BME280_temperature;BME280_humidity;BME280_pressure;Samples;Min_cycle;Max_cycle;Signal;HPM_P1;HPM_P2
2022/09/20 00:00:49;;;;;;;6.32;2.30;;;;;;;11.07;100.00;100656.09;5032288;28;20031;-69
2022/09/20 00:03:15;;;;;;;3.67;2.15;;;;;;;11.08;100.00;100656.06;5031798;28;20057;-68
2022/09/20 00:05:43;;;;;;;4.10;2.40;;;;;;;11.12;100.00;100656.88;5032097;28;20778;-69
2022/09/20 00:08:14;;;;;;;5.50;2.72;;;;;;;11.12;100.00;100656.88;5031912;28;20778;-70
2022/09/20 00:10:41;;;;;;;5.90;2.47;;;;;;;10.95;100.00;100633.31;5031961;28;20160;-69
2022/09/20 00:13:09;;;;;;;7.57;2.30;;;;;;;11.08;100.00;100655.19;5031815;28;20025;-69
2022/09/20 00:15:41;;;;;;;4.68;2.30;;;;;;;11.08;100.00;100655.19;5031294;28;20041;-69
2022/09/20 00:18:06;;;;;;;5.90;2.17;;;;;;;11.07;100.00;100653.44;5031191;28;20795;-67
2022/09/20 00:20:31;;;;;;;4.07;2.28;;;;;;;11.04;100.00;100658.81;5030815;28;20025;-69
2022/09/20 00:22:57;;;;;;;5.90;2.17;;;;;;;11.02;100.00;100655.34;5030726;28;20034;-68
2022/09/20 00:25:22;;;;;;;4.20;1.95;;;;;;;10.97;100.00;100647.44;5013154;28;20618;-69
2022/09/20 00:27:48;;;;;;;3.92;2.08;;;;;;;10.99;100.00;100650.94;5010767;28;20041;-68
2022/09/20 00:30:13;;;;;;;7.13;2.28;;;;;;;11.01;100.00;100654.47;5011164;28;20564;-68
2022/09/20 00:32:40;;;;;;;4.78;2.63;;;;;;;10.95;100.00;100651.06;5014150;28;20033;-68
2022/09/20 00:35:12;;;;;;;5.20;2.25;;;;;;;10.90;100.00;100650.31;5011847;28;20025;-69
2022/09/20 00:37:41;;;;;;;13.30;2.40;;;;;;;10.92;100.00;100648.50;5014230;28;20032;-69
2022/09/20 00:40:11;;;;;;;4.25;2.22;;;;;;;10.91;100.00;100652.03;5011264;28;20030;-68
2022/09/20 00:42:37;;;;;;;4.55;2.25;;;;;;;10.90;100.00;100650.31;5010977;28;20168;-68
2022/09/20 00:45:16;;;;;;;3.95;2.28;;;;;;;10.88;100.00;100655.66;5009863;28;20473;-69
2022/09/20 00:47:46;;;;;;;5.78;2.25;;;;;;;10.84;100.00;100653.97;5010488;28;20136;-70
2022/09/20 00:50:23;;;;;;;6.07;2.60;;;;;;;10.79;100.00;100657.66;5009998;28;20046;-69
2022/09/20 00:52:59;;;;;;;4.57;2.10;;;;;;;10.72;100.00;100661.38;5010722;28;20166;-69
2022/09/20 00:55:25;;;;;;;5.20;2.55;;;;;;;10.70;100.00;100664.06;5021422;28;20035;-69
2022/09/20 00:57:52;;;;;;;21.38;4.35;;;;;;;10.71;100.00;100665.81;5016892;28;20115;-70
2022/09/20 01:00:36;;;;;;;7.20;2.65;;;;;;;10.73;100.00;100660.44;5011021;28;20177;-68
2022/09/20 01:03:06;;;;;;;5.75;2.50;;;;;;;10.71;100.00;100664.97;5017243;28;20025;-69
2022/09/20 01:05:33;;;;;;;5.95;2.28;;;;;;;10.72;100.00;100661.38;5030663;28;20230;-69
2022/09/20 01:07:59;;;;;;;3.47;2.25;;;;;;;10.70;100.00;100657.88;5030776;28;20037;-68
2022/09/20 01:10:25;;;;;;;4.97;2.55;;;;;;;10.66;100.00;100656.22;5015640;28;20072;-69
2022/09/20 01:12:53;;;;;;;4.93;2.17;;;;;;;10.68;100.00;100660.56;5012950;28;20524;-69
2022/09/20 01:15:19;;;;;;;6.20;2.00;;;;;;;10.63;100.00;100657.13;5030308;28;20033;-68
2022/09/20 01:17:49;;;;;;;5.15;2.30;;;;;;;10.63;100.00;100663.34;5033278;28;20472;-70
2022/09/20 01:20:23;;;;;;;4.03;2.20;;;;;;;10.61;100.00;100659.84;5030470;28;20079;-70
2022/09/20 01:23:16;;;;;;;7.53;2.53;;;;;;;10.60;100.00;100658.09;5030443;28;20033;-68
2022/09/20 01:26:06;;;;;;;2.58;1.60;;;;;;;10.57;100.00;100663.50;5010834;28;20120;-69
2022/09/20 01:28:33;;;;;;;5.55;1.80;;;;;;;10.56;100.00;100661.72;5013344;28;20025;-69
2022/09/20 01:31:20;;;;;;;3.72;1.73;;;;;;;10.58;100.00;100659.91;5010964;28;20038;-69
2022/09/20 01:33:49;;;;;;;4.25;1.83;;;;;;;10.58;100.00;100665.22;5010772;28;20026;-70
2022/09/20 01:36:33;;;;;;;2.80;1.77;;;;;;;10.55;100.00;100664.41;5010521;28;20036;-69
2022/09/20 01:39:15;;;;;;;4.30;2.50;;;;;;;10.47;100.00;100653.06;5010754;28;20028;-68
2022/09/20 01:41:49;;;;;;;3.03;1.92;;;;;;;10.45;100.00;100658.44;4993827;28;20026;-69
2022/09/20 01:44:36;;;;;;;4.50;2.03;;;;;;;10.45;100.00;100655.78;5010199;28;20497;-69
2022/09/20 01:47:38;;;;;;;4.57;2.63;;;;;;;10.40;100.00;100655.00;5010096;28;20381;-70
2022/09/20 01:50:21;;;;;;;4.40;2.05;;;;;;;10.36;100.00;100653.28;5009714;28;20073;-69
2022/09/20 01:53:24;;;;;;;3.85;2.28;;;;;;;10.30;100.00;100657.88;5009634;28;20026;-68
2022/09/20 01:56:22;;;;;;;4.30;1.92;;;;;;;10.19;100.00;100650.13;5009576;28;20030;-68
2022/09/20 01:59:10;;;;;;;5.93;2.25;;;;;;;10.19;100.00;100652.81;5009858;28;20030;-69
2022/09/20 02:02:00;;;;;;;3.67;2.75;;;;;;;10.14;100.00;100646.69;5010230;28;20149;-69
2022/09/20 02:04:58;;;;;;;8.50;2.60;;;;;;;10.15;100.00;100643.13;5010259;28;20034;-69
2022/09/20 02:07:46;;;;;;;6.60;2.13;;;;;;;10.16;100.00;100649.31;5010288;28;20034;-69
2022/09/20 02:10:22;;;;;;;4.45;2.20;;;;;;;10.12;100.00;100652.94;5010258;28;20056;-68
2022/09/20 02:12:51;;;;;;;3.63;2.10;;;;;;;10.07;100.00;100655.66;5010055;28;20473;-69
2022/09/20 02:15:47;;;;;;;5.47;2.53;;;;;;;10.02;100.00;100646.91;5009606;28;20036;-69
2022/09/20 02:18:18;;;;;;;5.82;2.60;;;;;;;9.96;100.00;100647.03;5008963;28;20041;-69
2022/09/20 02:20:52;;;;;;;4.20;2.58;;;;;;;9.95;100.00;100655.91;5008841;28;20113;-69
2022/09/20 02:23:21;;;;;;;6.82;3.50;;;;;;;9.90;100.00;100647.16;5008962;28;20835;-69
2022/09/20 02:26:13;;;;;;;4.32;2.65;;;;;;;9.96;100.00;100641.72;5008323;28;20054;-69
2022/09/20 02:28:44;;;;;;;6.38;2.65;;;;;;;9.99;100.00;100646.09;5008194;28;20010;-69
2022/09/20 02:31:20;;;;;;;8.80;3.10;;;;;;;9.96;100.00;100652.34;5017912;28;20129;-69
2022/09/20 02:34:18;;;;;;;8.35;4.00;;;;;;;9.97;100.00;100651.44;5025707;28;20065;-69
2022/09/20 02:37:05;;;;;;;9.10;3.92;;;;;;;9.85;100.00;100643.69;5028679;28;20100;-69
2022/09/20 02:39:38;;;;;;;11.65;4.82;;;;;;;9.90;100.00;100648.94;5029168;28;20029;-69
2022/09/20 02:42:06;;;;;;;6.82;3.97;;;;;;;9.88;100.00;100646.31;5030027;28;20033;-69
2022/09/20 02:44:40;;;;;;;7.40;4.18;;;;;;;9.83;100.00;100640.22;5029644;28;20108;-70
2022/09/20 02:47:17;;;;;;;7.32;3.65;;;;;;;9.81;100.00;100644.69;5029380;28;20030;-69
2022/09/20 02:50:13;;;;;;;6.57;3.17;;;;;;;9.81;100.00;100646.47;5029323;28;20057;-67
2022/09/20 02:52:53;;;;;;;9.65;4.07;;;;;;;9.84;100.00;100643.72;5029464;28;20036;-70
2022/09/20 02:55:28;;;;;;;6.45;3.88;;;;;;;9.86;100.00;100645.47;5027391;28;20026;-70
2022/09/20 02:58:29;;;;;;;7.45;4.07;;;;;;;9.91;100.00;100654.22;5015010;28;20036;-70
2022/09/20 03:01:22;;;;;;;7.85;3.20;;;;;;;9.97;100.00;100654.09;5009595;28;20375;-70
2022/09/20 03:04:12;;;;;;;6.70;3.20;;;;;;;10.03;100.00;100653.97;4991757;28;20048;-71
2022/09/20 03:07:00;;;;;;;5.75;2.92;;;;;;;10.02;100.00;100657.53;5009860;28;20497;-69
2022/09/20 03:09:42;;;;;;;5.68;4.00;;;;;;;10.06;100.00;100655.69;5029201;28;20394;-70
2022/09/20 03:12:18;;;;;;;4.82;2.95;;;;;;;10.09;100.00;100663.63;5049568;28;20025;-70
2022/09/20 03:14:58;;;;;;;5.30;2.75;;;;;;;10.10;100.00;100665.38;5052958;28;20040;-70
2022/09/20 03:17:56;;;;;;;4.95;2.50;;;;;;;10.10;100.00;100671.56;5053150;28;20058;-70
2022/09/20 03:20:31;;;;;;;5.05;3.33;;;;;;;10.03;100.00;100667.25;5030475;28;20068;-70
2022/09/20 03:23:08;;;;;;;11.38;3.63;;;;;;;10.01;100.00;100677.06;5013172;28;20092;-70
2022/09/20 03:26:18;;;;;;;8.15;2.65;;;;;;;10.04;100.00;100679.66;5013121;28;20045;-70
2022/09/20 03:28:54;;;;;;;4.13;3.03;;;;;;;10.00;100.00;100675.28;5012714;28;20124;-68
2022/09/20 03:31:41;;;;;;;7.60;3.13;;;;;;;9.99;100.00;100680.63;5012832;28;20053;-69
2022/09/20 03:34:15;;;;;;;8.23;2.80;;;;;;;9.98;100.00;100685.06;5012944;28;20378;-70
2022/09/20 03:37:03;;;;;;;6.32;3.15;;;;;;;10.04;100.00;100684.97;5013064;28;20037;-68
2022/09/20 03:39:38;;;;;;;6.05;3.08;;;;;;;10.12;100.00;100680.41;5013010;28;20033;-69
2022/09/20 03:42:18;;;;;;;9.15;2.90;;;;;;;10.13;100.00;100670.66;5012908;28;20037;-70
2022/09/20 03:44:44;;;;;;;4.93;2.75;;;;;;;10.29;100.00;100683.59;5013053;28;20057;-69
2022/09/20 03:47:35;;;;;;;8.05;3.00;;;;;;;10.37;100.00;100681.66;5012561;28;20056;-69
2022/09/20 03:50:06;;;;;;;14.50;3.15;;;;;;;10.43;100.00;100676.19;5012444;28;20060;-70
2022/09/20 03:52:59;;;;;;;7.47;2.95;;;;;;;10.51;100.00;100679.56;5012607;28;20050;-71
2022/09/20 03:55:56;;;;;;;10.27;2.53;;;;;;;10.54;100.00;100679.50;5012639;28;20034;-69
2022/09/20 03:58:27;;;;;;;9.70;2.83;;;;;;;10.59;100.00;100682.94;5030892;28;20040;-70
2022/09/20 04:00:59;;;;;;;6.45;2.47;;;;;;;10.60;100.00;100686.47;5032249;28;20488;-70
2022/09/20 04:03:33;;;;;;;5.80;2.55;;;;;;;10.60;100.00;100683.81;5032286;28;20025;-70
2022/09/20 04:06:33;;;;;;;6.90;3.03;;;;;;;10.60;100.00;100684.69;5032093;28;20026;-69
2022/09/20 04:09:20;;;;;;;8.32;2.42;;;;;;;10.57;100.00;100689.19;5032018;28;20025;-68
2022/09/20 04:12:02;;;;;;;4.13;2.42;;;;;;;10.56;100.00;100687.44;5032095;28;20025;-70
2022/09/20 04:14:43;;;;;;;6.75;2.55;;;;;;;10.57;100.00;100690.09;5031986;28;20029;-70
2022/09/20 04:17:34;;;;;;;5.95;2.42;;;;;;;10.59;100.00;100690.06;5013911;28;20032;-69
2022/09/20 04:20:19;;;;;;;5.35;2.72;;;;;;;10.61;100.00;100691.75;5030800;28;20053;-70
2022/09/20 04:22:49;;;;;;;6.03;2.67;;;;;;;10.64;100.00;100697.00;5031886;28;20068;-69
2022/09/20 04:25:20;;;;;;;4.65;2.85;;;;;;;10.68;100.00;100697.81;5015611;28;20036;-70
2022/09/20 04:27:53;;;;;;;8.88;3.50;;;;;;;10.76;100.00;100695.00;5014339;28;20388;-70
2022/09/20 04:30:23;;;;;;;7.85;3.22;;;;;;;10.76;100.00;100697.66;5012056;28;20041;-69
2022/09/20 04:33:06;;;;;;;6.07;2.95;;;;;;;10.75;100.00;100702.09;5011792;28;20046;-69
2022/09/20 04:38:19;;;;;;;4.60;2.65;;;;;;;10.91;100.00;100697.28;5011728;28;19960;-69
2022/09/20 04:41:15;;;;;;;8.82;2.75;;;;;;;10.91;100.00;100699.94;5014024;28;20033;-70
2022/09/20 04:43:55;;;;;;;6.43;3.25;;;;;;;10.90;100.00;100704.41;5011460;28;20581;-70
2022/09/20 04:46:54;;;;;;;5.30;2.85;;;;;;;10.94;100.00;100702.56;5011463;28;20022;-71
2022/09/20 04:49:53;;;;;;;4.78;2.42;;;;;;;10.98;100.00;100702.44;5029460;28;20136;-68
2022/09/20 04:52:57;;;;;;;5.60;2.60;;;;;;;10.92;100.00;100709.69;5031258;28;20036;-68
2022/09/20 04:56:08;;;;;;;6.28;2.65;;;;;;;10.81;100.00;100714.41;5014088;28;20121;-70
2022/09/20 04:58:37;;;;;;;3.65;2.33;;;;;;;10.76;100.00;100718.94;4997917;28;20167;-69
2022/09/20 05:01:20;;;;;;;3.72;2.33;;;;;;;10.68;100.00;100718.22;5030625;28;20026;-70
2022/09/20 05:04:04;;;;;;;5.03;2.17;;;;;;;10.58;100.00;100723.75;5031216;28;20116;-70
2022/09/20 05:06:36;;;;;;;5.20;2.25;;;;;;;10.49;100.00;100729.25;5033918;28;20416;-69
2022/09/20 05:09:04;;;;;;;7.60;2.33;;;;;;;10.52;100.00;100723.00;5031441;28;20384;-69
2022/09/20 05:11:48;;;;;;;5.03;2.38;;;;;;;10.53;100.00;100719.44;5031243;28;20025;-70
2022/09/20 05:14:35;;;;;;;6.75;3.00;;;;;;;10.52;100.00;100723.00;5031097;28;20037;-69
2022/09/20 05:17:05;;;;;;;4.25;2.53;;;;;;;10.49;100.00;100723.94;5030596;28;20041;-69
2022/09/20 05:20:00;;;;;;;5.38;2.25;;;;;;;10.48;100.00;100730.16;5033623;28;20469;-70
2022/09/20 05:23:11;;;;;;;5.88;2.47;;;;;;;10.55;100.00;100733.56;5051236;28;20746;-70
2022/09/20 05:26:02;;;;;;;4.55;2.70;;;;;;;10.63;100.00;100737.84;5012142;28;20026;-69
2022/09/20 05:28:49;;;;;;;6.00;2.53;;;;;;;10.64;100.00;100741.38;5010829;28;20038;-70
2022/09/20 05:31:19;;;;;;;4.03;2.55;;;;;;;10.63;100.00;100748.47;5010592;28;20465;-70
2022/09/20 05:34:21;;;;;;;10.15;2.88;;;;;;;10.58;100.00;100745.03;5010709;28;20833;-70
2022/09/20 05:36:59;;;;;;;8.88;3.00;;;;;;;10.57;100.00;100751.28;5010871;28;20500;-70
2022/09/20 05:39:35;;;;;;;7.50;2.90;;;;;;;10.56;100.00;100746.84;5010735;28;20032;-70
2022/09/20 05:42:11;;;;;;;6.70;3.53;;;;;;;10.53;100.00;100732.72;5010648;28;20508;-70
2022/09/20 05:45:05;;;;;;;5.95;2.80;;;;;;;10.66;100.00;100736.03;5010764;28;20100;-71
2022/09/20 05:47:56;;;;;;;7.03;4.00;;;;;;;10.75;100.00;100735.81;5009889;28;20148;-70
2022/09/20 05:50:44;;;;;;;8.13;4.75;;;;;;;10.83;100.00;100734.72;5009308;28;20160;-70
2022/09/20 05:53:12;;;;;;;12.50;5.97;;;;;;;10.94;100.00;100737.16;5009321;28;20029;-69
2022/09/20 05:55:51;;;;;;;9.90;4.32;;;;;;;11.04;100.00;100741.34;5009529;28;20488;-70
2022/09/20 05:58:34;;;;;;;6.95;4.05;;;;;;;11.13;100.00;100754.47;5008770;28;20373;-69
2022/09/20 06:01:13;;;;;;;8.27;3.90;;;;;;;11.20;100.00;100756.06;5029189;28;20112;-70
2022/09/20 06:03:54;;;;;;;7.55;4.07;;;;;;;11.32;100.00;100758.44;5030069;28;20424;-69
2022/09/20 06:06:44;;;;;;;7.50;4.03;;;;;;;11.40;100.00;100760.00;5030108;28;20032;-70
2022/09/20 06:09:28;;;;;;;4.57;2.97;;;;;;;11.43;100.00;100762.59;5029673;28;20068;-70
2022/09/20 06:12:12;;;;;;;6.43;3.13;;;;;;;11.56;100.00;100755.19;5029963;28;20018;-70
2022/09/20 06:15:00;;;;;;;4.25;2.70;;;;;;;11.74;100.00;100757.44;5030272;28;20021;-70
2022/09/20 06:17:35;;;;;;;6.63;2.75;;;;;;;12.01;100.00;100754.03;5030100;28;20044;-69
2022/09/20 06:20:17;;;;;;;5.40;3.58;;;;;;;12.32;100.00;100754.94;5030035;28;20033;-70
2022/09/20 06:22:53;;;;;;;5.35;2.70;;;;;;;13.27;100.00;100751.22;5029734;28;20040;-70
2022/09/20 06:25:30;;;;;;;7.53;2.63;;;;;;;13.89;94.79;100750.00;5012908;28;20026;-70
2022/09/20 06:28:05;;;;;;;5.78;2.35;;;;;;;14.50;90.22;100749.63;5009970;28;20029;-69
2022/09/20 06:30:39;;;;;;;4.72;2.78;;;;;;;15.80;87.04;100746.19;5012883;28;20045;-69
2022/09/20 06:33:04;;;;;;;6.03;2.50;;;;;;;18.38;77.20;100748.09;5010285;28;20430;-69
2022/09/20 06:35:38;;;;;;;3.63;1.92;;;;;;;20.53;60.82;100748.28;5010215;28;20112;-70
2022/09/20 06:41:27;;;;;;;;;;;;;;;18.44;59.75;100749.63;5010169;28;20292;-70
2022/09/20 06:44:00;;;;;;;6.80;2.38;;;;;;;18.52;62.09;100754.66;5014257;28;20000;-71
2022/09/20 06:46:27;;;;;;;4.47;2.55;;;;;;;18.45;61.05;100750.53;5018263;28;20769;-70
2022/09/20 06:48:54;;;;;;;6.45;2.38;;;;;;;17.73;61.90;100753.31;5035528;28;20083;-70
2022/09/20 06:51:20;;;;;;;6.45;2.25;;;;;;;17.05;63.81;100742.31;5033873;28;20037;-71
2022/09/20 06:53:46;;;;;;;7.07;2.72;;;;;;;16.65;66.85;100747.81;5012175;28;20521;-70
2022/09/20 06:56:19;;;;;;;7.47;2.63;;;;;;;16.35;68.34;100752.72;5013810;28;20053;-71
2022/09/20 06:58:45;;;;;;;5.43;2.50;;;;;;;16.40;70.36;100744.47;4995843;28;20064;-71
2022/09/20 07:01:12;;;;;;;6.05;2.70;;;;;;;16.80;69.27;100749.81;5013013;28;20112;-71
2022/09/20 07:03:41;;;;;;;7.30;3.05;;;;;;;17.53;67.52;100750.75;5013226;28;20034;-68
2022/09/20 07:06:08;;;;;;;4.97;2.58;;;;;;;18.75;62.64;100748.84;5013155;28;20033;-70
2022/09/20 07:08:34;;;;;;;3.85;1.90;;;;;;;19.11;58.05;100753.09;5012807;28;20076;-70
2022/09/20 07:11:09;;;;;;;8.07;3.65;;;;;;;18.76;57.94;100753.31;5012854;28;20069;-70
2022/09/20 07:13:35;;;;;;;6.60;2.25;;;;;;;18.11;60.07;100759.44;5029891;28;20029;-71
2022/09/20 07:16:03;;;;;;;7.38;2.70;;;;;;;17.49;62.16;100729.47;5033206;28;20552;-71
2022/09/20 07:18:29;;;;;;;7.75;2.17;;;;;;;17.25;64.10;100762.91;5033157;28;20022;-68
2022/09/20 07:20:57;;;;;;;7.32;2.47;;;;;;;16.71;66.61;100742.16;5033249;28;20063;-70
2022/09/20 07:23:24;;;;;;;7.10;2.47;;;;;;;16.40;67.35;100753.41;5032014;28;20396;-71
2022/09/20 07:25:50;;;;;;;8.88;2.47;;;;;;;16.22;69.03;100770.31;5013454;28;20408;-69
2022/09/20 07:28:15;;;;;;;5.90;2.30;;;;;;;15.90;71.60;100773.50;5013281;28;20076;-70
2022/09/20 07:30:41;;;;;;;7.00;2.45;;;;;;;15.90;73.66;100770.81;5013306;28;20026;-71
2022/09/20 07:33:08;;;;;;;3.92;1.80;;;;;;;15.98;73.63;100765.13;5013170;28;20536;-69
2022/09/20 07:35:35;;;;;;;4.78;2.08;;;;;;;16.05;73.83;100769.28;5013255;28;20033;-71
2022/09/20 07:38:01;;;;;;;5.60;2.53;;;;;;;15.94;73.17;100764.38;5012973;28;20048;-69
2022/09/20 07:40:27;;;;;;;7.55;3.38;;;;;;;15.68;74.56;100773.50;5013217;28;20022;-71
2022/09/20 07:42:55;;;;;;;6.57;2.55;;;;;;;15.82;75.73;100784.56;5013279;28;20437;-71
2022/09/20 07:45:21;;;;;;;10.10;2.95;;;;;;;17.41;76.60;100767.47;5013072;28;20053;-70
2022/09/20 07:47:46;;;;;;;6.93;2.92;;;;;;;19.07;69.47;100770.41;5013199;28;20109;-71
2022/09/20 07:50:11;;;;;;;8.05;2.75;;;;;;;20.26;60.51;100773.41;5012584;28;20112;-68
2022/09/20 07:52:37;;;;;;;6.18;2.47;;;;;;;20.93;54.19;100779.09;5012339;28;20113;-71
2022/09/20 07:55:03;;;;;;;6.03;2.35;;;;;;;21.89;52.27;100780.91;5012696;28;20026;-71
2022/09/20 07:57:28;;;;;;;4.93;1.90;;;;;;;22.00;50.66;100782.91;5023358;28;20091;-71
2022/09/20 07:59:53;;;;;;;6.03;1.70;;;;;;;22.02;50.38;100789.09;5032498;28;20106;-71
2022/09/20 08:02:19;;;;;;;7.28;3.42;;;;;;;21.83;50.25;100791.28;5032430;28;20029;-72
2022/09/20 08:04:44;;;;;;;7.15;2.00;;;;;;;21.99;50.49;100797.44;5032259;28;20152;-71
2022/09/20 08:07:11;;;;;;;7.22;2.20;;;;;;;22.10;50.93;100786.75;5032524;28;20473;-72
2022/09/20 08:09:36;;;;;;;3.08;1.50;;;;;;;22.21;49.88;100789.59;5031927;28;20033;-71
2022/09/20 08:12:02;;;;;;;4.25;1.60;;;;;;;22.58;50.04;100801.53;5032229;28;20032;-69
2022/09/20 08:14:27;;;;;;;5.60;2.20;;;;;;;22.73;49.02;100798.63;5031358;28;20025;-71
2022/09/20 08:16:58;;;;;;;5.00;1.83;;;;;;;22.91;48.39;100791.00;5031052;28;20040;-71
2022/09/20 08:19:23;;;;;;;5.43;2.10;;;;;;;22.77;48.43;100800.13;5031478;28;20190;-71
2022/09/20 08:21:51;;;;;;;5.25;1.60;;;;;;;22.88;48.24;100799.38;5031226;28;20156;-72
2022/09/20 08:24:17;;;;;;;3.95;1.50;;;;;;;22.86;47.99;100809.47;5022895;28;20105;-71
2022/09/20 08:26:43;;;;;;;4.65;1.50;;;;;;;22.17;48.07;100804.34;5010852;28;20036;-71
2022/09/20 08:29:10;;;;;;;4.80;1.67;;;;;;;21.62;48.41;100806.22;5011410;28;20103;-72
2022/09/20 08:31:39;;;;;;;3.90;1.80;;;;;;;21.34;51.06;100803.56;4994507;28;20030;-72
2022/09/20 08:34:07;;;;;;;4.65;1.63;;;;;;;21.18;51.45;100810.91;5012453;28;20132;-71
2022/09/20 08:36:35;;;;;;;4.15;1.55;;;;;;;21.21;52.89;100797.19;5014052;28;20393;-72
2022/09/20 08:39:00;;;;;;;3.97;1.67;;;;;;;21.06;52.46;100806.28;5011947;28;20077;-71
2022/09/20 08:41:31;;;;;;;7.22;1.45;;;;;;;21.04;52.96;100789.28;5011992;28;20058;-70
2022/09/20 08:44:03;;;;;;;3.08;1.48;;;;;;;21.02;52.12;100796.63;5011846;28;20030;-72
2022/09/20 08:46:34;;;;;;;3.28;1.38;;;;;;;21.15;52.58;100789.47;5019816;28;20024;-71
2022/09/20 08:49:03;;;;;;;6.20;1.48;;;;;;;21.20;53.43;100800.88;5011502;28;20040;-71
2022/09/20 08:51:32;;;;;;;5.82;2.00;;;;;;;21.12;53.92;100792.38;5011201;28;20121;-71
2022/09/20 08:53:59;;;;;;;6.38;1.60;;;;;;;21.14;54.03;100794.00;5016524;28;20033;-70
2022/09/20 08:56:28;;;;;;;6.95;1.83;;;;;;;21.26;53.77;100789.66;5027794;28;20029;-69
2022/09/20 08:58:56;;;;;;;4.05;1.50;;;;;;;21.71;52.21;100794.78;5010607;28;20111;-71
2022/09/20 09:01:24;;;;;;;4.38;1.52;;;;;;;22.08;50.66;100794.97;5010628;28;20041;-72
2022/09/20 09:03:51;;;;;;;5.80;1.85;;;;;;;22.09;49.89;100785.00;5010409;28;20022;-71
2022/09/20 09:06:20;;;;;;;3.25;2.03;;;;;;;22.80;47.92;100780.91;5009589;28;20026;-72
2022/09/20 09:08:50;;;;;;;5.57;1.75;;;;;;;23.07;46.49;100787.09;5010898;28;20030;-72
2022/09/20 09:11:18;;;;;;;3.45;1.38;;;;;;;22.70;47.10;100784.41;5022216;28;20365;-72
2022/09/20 09:13:56;;;;;;;5.95;1.85;;;;;;;22.62;47.03;100790.34;5050758;28;20112;-71
2022/09/20 09:16:25;;;;;;;5.68;1.90;;;;;;;22.62;46.68;100784.06;5051005;28;20032;-72
2022/09/20 09:18:52;;;;;;;5.97;1.60;;;;;;;23.19;46.86;100775.38;5050992;28;20479;-72
2022/09/20 09:21:24;;;;;;;6.75;2.10;;;;;;;23.89;45.42;100786.47;5050980;28;20052;-72
2022/09/20 09:24:00;;;;;;;6.13;1.88;;;;;;;24.29;42.53;100785.22;5041240;28;20037;-71
2022/09/20 09:26:26;;;;;;;4.50;1.27;;;;;;;24.49;41.49;100779.09;5011257;28;20030;-71
2022/09/20 09:29:23;;;;;;;3.38;1.50;;;;;;;24.59;43.45;100772.84;5010709;28;20037;-71
2022/09/20 09:31:53;;;;;;;4.95;1.83;;;;;;;24.84;41.62;100787.25;4976524;28;20045;-71
2022/09/20 09:34:25;;;;;;;6.75;1.50;;;;;;;24.94;42.57;100778.25;5009937;28;20056;-72
2022/09/20 09:36:53;;;;;;;1.95;1.60;;;;;;;25.45;41.68;100784.94;5010167;28;20877;-65
2022/09/20 09:39:25;;;;;;;5.28;1.50;;;;;;;24.63;41.67;100782.47;5010146;28;20029;-63
2022/09/20 09:41:50;;;;;;;5.03;1.55;;;;;;;24.83;41.23;100780.09;5009493;28;20018;-66
2022/09/20 09:44:26;;;;;;;8.90;1.80;;;;;;;24.30;41.92;100781.53;5010226;28;20488;-65
2022/09/20 09:46:53;;;;;;;3.35;1.23;;;;;;;24.94;41.63;100780.09;5010873;28;20479;-65
2022/09/20 09:49:24;;;;;;;4.00;1.67;;;;;;;25.04;40.94;100775.66;5010527;28;20405;-66
2022/09/20 09:52:14;;;;;;;5.30;1.42;;;;;;;24.25;40.96;100783.72;5009824;28;20129;-66
2022/09/20 09:54:47;;;;;;;4.40;1.60;;;;;;;24.70;41.79;100774.72;5009150;28;20033;-66
2022/09/20 09:57:25;;;;;;;6.55;2.78;;;;;;;24.65;40.98;100772.34;5017537;28;20034;-67
2022/09/20 10:00:13;;;;;;;4.22;1.25;;;;;;;23.69;42.16;100773.53;5029106;28;20132;-66
2022/09/20 10:02:53;;;;;;;4.53;1.50;;;;;;;22.83;44.65;100775.25;5029013;28;20056;-66
2022/09/20 10:05:34;;;;;;;5.72;1.60;;;;;;;22.37;46.41;100774.03;5034931;28;20037;-69
2022/09/20 10:08:18;;;;;;;5.13;1.08;;;;;;;22.05;45.59;100772.63;5037925;28;20040;-70
2022/09/20 10:10:44;;;;;;;;;;;;;;;21.49;44.81;100768.25;5040074;28;20029;-69
2022/09/20 10:13:25;;;;;;;6.72;1.17;;;;;;;21.13;47.88;100776.06;5031327;28;19920;-70
2022/09/20 10:16:06;;;;;;;2.53;0.85;;;;;;;20.57;49.37;100770.59;5033417;28;20030;-71
2022/09/20 10:18:53;;;;;;;4.60;1.13;;;;;;;20.44;48.09;100773.19;5029564;28;20057;-70
2022/09/20 10:21:49;;;;;;;3.47;1.63;;;;;;;20.10;50.21;100784.22;5032954;28;20437;-69
2022/09/20 10:24:42;;;;;;;2.53;0.98;;;;;;;19.67;49.97;100774.19;5020697;28;20113;-71
2022/09/20 10:27:33;;;;;;;1.73;0.83;;;;;;;19.33;52.64;100783.34;5012113;28;20044;-70
2022/09/20 10:30:13;;;;;;;3.38;0.80;;;;;;;19.19;53.63;100774.25;5009043;28;20284;-71
2022/09/20 10:32:49;;;;;;;6.53;1.65;;;;;;;19.12;57.02;100772.84;5010000;28;20156;-69
2022/09/20 10:35:52;;;;;;;3.70;1.02;;;;;;;18.97;55.56;100762.91;5017613;28;20026;-69
2022/09/20 10:38:36;;;;;;;2.10;0.80;;;;;;;18.98;57.60;100765.53;5015698;28;20057;-70
2022/09/20 10:44:11;;;;;;;5.63;1.15;;;;;;;19.30;52.72;100761.94;5012557;28;20048;-70
2022/09/20 10:46:41;;;;;;;4.07;1.10;;;;;;;19.24;50.86;100740.66;5029011;28;20037;-70
2022/09/20 10:49:27;;;;;;;6.07;1.25;;;;;;;19.51;52.21;100759.84;5029411;28;20054;-71
2022/09/20 10:52:06;;;;;;;3.03;0.90;;;;;;;19.88;53.16;100756.75;5029680;28;20029;-71
2022/09/20 10:55:05;;;;;;;8.15;1.55;;;;;;;19.96;51.27;100750.91;5019196;28;20434;-71
2022/09/20 10:58:02;;;;;;;2.97;1.42;;;;;;;20.51;50.89;100755.59;5009562;28;20044;-69
2022/09/20 11:00:40;;;;;;;1.95;0.85;;;;;;;21.49;47.02;100751.13;5009748;28;20022;-72
2022/09/20 11:03:43;;;;;;;4.07;0.80;;;;;;;22.48;45.70;100752.44;5009836;28;20108;-72
2022/09/20 11:06:22;;;;;;;2.55;1.00;;;;;;;22.96;42.67;100762.59;5014519;28;20071;-71
2022/09/20 11:08:55;;;;;;;4.13;0.80;;;;;;;23.39;42.29;100749.50;5047816;28;20032;-71
2022/09/20 11:11:29;;;;;;;1.85;0.73;;;;;;;23.79;41.86;100752.84;5048653;28;20025;-71
2022/09/20 11:14:16;;;;;;;3.25;0.80;;;;;;;24.85;40.13;100740.84;5048974;28;20491;-71
2022/09/20 11:16:49;;;;;;;4.85;1.10;;;;;;;25.51;38.14;100750.88;5048602;28;20040;-69
2022/09/20 11:19:34;;;;;;;;;;;;;;;26.23;35.95;100750.16;5045759;28;20044;-71
2022/09/20 11:22:21;;;;;;;4.57;0.80;;;;;;;25.65;36.54;100756.06;5048587;28;19928;-71
2022/09/20 11:24:51;;;;;;;2.35;0.70;;;;;;;24.59;36.50;100751.06;5024406;28;20034;-71
2022/09/20 11:27:30;;;;;;;4.05;1.05;;;;;;;24.01;39.08;100763.84;5009575;28;20022;-71
2022/09/20 11:30:18;;;;;;;3.92;1.30;;;;;;;23.78;40.17;100753.81;5013192;28;20018;-71
2022/09/20 11:32:52;;;;;;;4.75;1.50;;;;;;;23.59;41.93;100748.88;5013215;28;20029;-71
2022/09/20 11:35:37;;;;;;;3.90;0.82;;;;;;;23.35;40.11;100746.16;5013452;28;20022;-71
2022/09/20 11:38:20;;;;;;;1.38;0.50;;;;;;;23.07;41.90;100749.09;5013206;28;20034;-72
2022/09/20 11:40:56;;;;;;;2.75;0.75;;;;;;;23.03;40.43;100753.00;5013035;28;20033;-71
2022/09/20 11:43:25;;;;;;;2.28;1.27;;;;;;;22.81;40.87;100749.22;5013502;28;20026;-72
2022/09/20 11:45:55;;;;;;;1.65;0.85;;;;;;;22.68;41.85;100741.09;5013084;28;20057;-72
2022/09/20 11:48:24;;;;;;;1.85;0.88;;;;;;;22.68;41.02;100745.66;5013260;28;20076;-72
2022/09/20 11:51:08;;;;;;;3.72;1.00;;;;;;;22.40;42.22;100746.69;5012719;28;20525;-71
2022/09/20 11:53:45;;;;;;;2.03;0.93;;;;;;;22.47;41.56;100745.28;5013160;28;20469;-72
2022/09/20 11:56:26;;;;;;;4.13;1.20;;;;;;;22.24;42.48;100735.16;5013255;28;20053;-72
2022/09/20 11:58:54;;;;;;;6.63;1.75;;;;;;;21.97;42.52;100737.06;5032528;28;20025;-72
2022/09/20 12:01:39;;;;;;;2.28;0.80;;;;;;;21.67;42.95;100739.97;5032276;28;20052;-71
2022/09/20 12:04:18;;;;;;;2.65;0.85;;;;;;;21.65;43.34;100744.59;5032762;28;20033;-72
2022/09/20 12:06:44;;;;;;;3.15;0.82;;;;;;;21.66;43.48;100748.19;5032376;28;20163;-73
2022/09/20 12:09:28;;;;;;;3.05;0.90;;;;;;;21.94;42.32;100732.72;5014705;28;20045;-72
2022/09/20 12:11:54;;;;;;;1.98;0.80;;;;;;;22.30;42.99;100729.34;5032221;28;20108;-72
2022/09/20 12:14:26;;;;;;;2.13;0.88;;;;;;;22.76;42.69;100730.56;5032045;28;20038;-72